createdAt,value
2023-04-27T00:01:22.737Z,10.27
2023-04-27T00:03:49.627Z,10.26
2023-04-27T00:06:16.534Z,10.25
2023-04-27T00:08:43.282Z,10.21
2023-04-27T00:11:10.098Z,10.18
2023-04-27T00:13:36.814Z,10.12
2023-04-27T00:16:04.078Z,10.06
2023-04-27T00:18:31.254Z,10.04
2023-04-27T00:20:59.348Z,10.01
2023-04-27T00:23:26.431Z,9.98
2023-04-27T00:25:53.181Z,9.96
2023-04-27T00:28:19.928Z,9.95
2023-04-27T00:30:46.698Z,9.93
2023-04-27T00:33:13.498Z,9.94
2023-04-27T00:35:40.690Z,9.93
2023-04-27T00:38:07.444Z,9.94
2023-04-27T00:40:34.258Z,9.90
2023-04-27T00:43:01.176Z,9.85
2023-04-27T00:45:28.134Z,9.82
2023-04-27T00:47:55.794Z,9.83
2023-04-27T00:50:29.462Z,9.82
2023-04-27T00:52:59.595Z,9.84
2023-04-27T00:55:26.404Z,9.84
2023-04-27T00:57:53.199Z,9.82
2023-04-27T01:00:19.926Z,9.83
2023-04-27T01:02:47.861Z,9.81
2023-04-27T01:05:17.607Z,9.80
2023-04-27T01:07:46.489Z,9.79
2023-04-27T01:10:13.150Z,9.79
2023-04-27T01:12:39.904Z,9.79
2023-04-27T01:15:07.572Z,9.83
2023-04-27T01:17:34.396Z,9.82
2023-04-27T01:20:02.497Z,9.79
2023-04-27T01:22:29.303Z,9.77
2023-04-27T01:24:58.885Z,9.75
2023-04-27T01:27:25.741Z,9.74
2023-04-27T01:29:52.409Z,9.73
2023-04-27T01:32:19.142Z,9.67
2023-04-27T01:34:45.867Z,9.68
2023-04-27T01:37:12.622Z,9.70
2023-04-27T01:39:39.326Z,9.72
2023-04-27T01:42:07.932Z,9.72
2023-04-27T01:44:34.983Z,9.67
2023-04-27T01:47:01.909Z,9.61
2023-04-27T01:49:28.638Z,9.53
2023-04-27T01:51:56.457Z,9.48
2023-04-27T01:54:28.088Z,9.45
2023-04-27T01:56:56.026Z,9.39
2023-04-27T01:59:22.662Z,9.34
2023-04-27T02:01:49.293Z,9.30
2023-04-27T02:04:16.349Z,9.24
2023-04-27T02:06:43.201Z,9.23
2023-04-27T02:09:09.894Z,9.23
2023-04-27T02:11:40.074Z,9.24
2023-04-27T02:14:07.299Z,9.22
2023-04-27T02:16:35.224Z,9.22
2023-04-27T02:19:03.287Z,9.23
2023-04-27T02:21:30.256Z,9.22
2023-04-27T02:23:56.999Z,9.21
2023-04-27T02:26:29.187Z,9.25
2023-04-27T02:28:57.150Z,9.38
2023-04-27T02:31:24.391Z,9.47
2023-04-27T02:33:51.307Z,9.57
2023-04-27T02:36:17.958Z,9.64
2023-04-27T02:38:44.713Z,9.71
2023-04-27T02:41:11.332Z,9.77
2023-04-27T02:43:38.019Z,9.83
2023-04-27T02:46:06.328Z,9.87
2023-04-27T02:48:33.520Z,9.91
2023-04-27T02:51:04.145Z,9.92
2023-04-27T02:53:30.801Z,9.95
2023-04-27T02:55:58.437Z,10.00
2023-04-27T02:58:25.142Z,10.06
2023-04-27T03:00:56.156Z,10.07
2023-04-27T03:03:23.901Z,10.04
2023-04-27T03:05:50.859Z,10.00
2023-04-27T03:08:17.564Z,9.96
2023-04-27T03:10:44.311Z,9.95
2023-04-27T03:13:11.222Z,9.93
2023-04-27T03:15:38.136Z,9.92
2023-04-27T03:18:05.169Z,9.93
2023-04-27T03:20:32.182Z,9.96
2023-04-27T03:22:58.961Z,10.00
2023-04-27T03:25:26.121Z,10.00
2023-04-27T03:27:52.871Z,10.00
2023-04-27T03:30:19.754Z,9.96
2023-04-27T03:32:47.613Z,9.97
2023-04-27T03:35:15.082Z,9.96
2023-04-27T03:37:41.700Z,9.95
2023-04-27T03:40:08.858Z,9.94
2023-04-27T03:42:35.648Z,9.94
2023-04-27T03:45:06.572Z,9.93
2023-04-27T03:47:34.078Z,9.91
2023-04-27T03:50:00.811Z,9.91
2023-04-27T03:52:27.540Z,9.85
2023-04-27T03:54:54.163Z,9.81
2023-04-27T03:57:21.478Z,9.80
2023-04-27T03:59:48.171Z,9.77
2023-04-27T04:02:15.257Z,9.75
2023-04-27T04:04:42.301Z,9.71
2023-04-27T04:07:09.358Z,9.73
2023-04-27T04:09:36.226Z,9.77
2023-04-27T04:12:03.726Z,9.78
2023-04-27T04:14:30.477Z,9.74
2023-04-27T04:16:57.433Z,9.71
2023-04-27T04:19:24.139Z,9.71
2023-04-27T04:21:50.811Z,9.77
2023-04-27T04:24:18.848Z,9.82
2023-04-27T04:26:45.582Z,9.84
2023-04-27T04:29:12.650Z,9.83
2023-04-27T04:31:40.482Z,9.80
2023-04-27T04:34:10.084Z,9.78
2023-04-27T04:36:36.862Z,9.85
2023-04-27T04:39:05.444Z,9.91
2023-04-27T04:41:33.669Z,9.94
2023-04-27T04:44:00.751Z,9.91
2023-04-27T04:46:28.526Z,9.94
2023-04-27T04:48:56.986Z,9.96
2023-04-27T04:51:23.716Z,10.03
2023-04-27T04:53:50.475Z,10.09
2023-04-27T04:56:17.182Z,10.15
2023-04-27T04:58:43.932Z,10.19
2023-04-27T05:01:10.843Z,10.25
2023-04-27T05:03:37.932Z,10.27
2023-04-27T05:06:04.887Z,10.29
2023-04-27T05:08:31.635Z,10.34
2023-04-27T05:10:58.344Z,10.43
2023-04-27T05:13:25.012Z,10.51
2023-04-27T05:15:52.140Z,10.57
2023-04-27T05:18:19.265Z,10.62
2023-04-27T05:20:45.982Z,10.65
2023-04-27T05:23:12.688Z,10.68
2023-04-27T05:25:41.785Z,10.73
2023-04-27T05:28:09.503Z,10.81
2023-04-27T05:30:36.921Z,10.89
2023-04-27T05:33:04.409Z,10.99
2023-04-27T05:35:32.020Z,11.05
2023-04-27T05:37:58.743Z,11.10
2023-04-27T05:40:25.461Z,11.20
2023-04-27T05:42:52.325Z,11.28
2023-04-27T05:45:20.764Z,11.37
2023-04-27T05:47:47.961Z,11.45
2023-04-27T05:50:14.690Z,11.56
2023-04-27T05:52:41.406Z,11.65
2023-04-27T05:55:08.456Z,11.74
2023-04-27T05:57:35.298Z,11.81
2023-04-27T06:00:07.318Z,11.90
2023-04-27T06:02:39.166Z,11.96
2023-04-27T06:05:07.106Z,12.02
2023-04-27T06:07:33.992Z,12.08
2023-04-27T06:10:00.654Z,12.18
2023-04-27T06:12:27.433Z,12.30
2023-04-27T06:14:54.063Z,12.44
2023-04-27T06:17:21.859Z,12.58
2023-04-27T06:19:48.618Z,12.65
2023-04-27T06:22:18.061Z,12.77
2023-04-27T06:24:44.921Z,12.94
2023-04-27T06:27:11.836Z,13.11
2023-04-27T06:29:38.476Z,13.26
2023-04-27T06:32:07.029Z,13.36
2023-04-27T06:34:35.155Z,13.42
2023-04-27T06:37:02.418Z,13.44
2023-04-27T06:39:29.130Z,13.48
2023-04-27T06:41:55.996Z,13.50
2023-04-27T06:44:25.054Z,13.56
2023-04-27T06:46:51.724Z,13.62
2023-04-27T06:49:18.439Z,13.72
2023-04-27T06:51:46.694Z,13.91
2023-04-27T06:54:13.595Z,14.16
2023-04-27T06:56:40.556Z,14.33
2023-04-27T06:59:08.333Z,14.65
2023-04-27T07:01:35.171Z,14.84
2023-04-27T07:04:01.961Z,14.95
2023-04-27T07:06:29.117Z,14.99
2023-04-27T07:08:56.158Z,15.08
2023-04-27T07:11:23.702Z,15.32
2023-04-27T07:13:50.615Z,15.69
2023-04-27T07:16:17.608Z,16.03
2023-04-27T07:18:44.347Z,16.17
2023-04-27T07:21:11.182Z,16.02
2023-04-27T07:23:40.001Z,16.13
2023-04-27T07:26:07.768Z,16.12
2023-04-27T07:28:38.187Z,16.17
2023-04-27T07:31:06.128Z,16.26
2023-04-27T07:33:33.861Z,16.19
2023-04-27T07:36:02.683Z,16.21
2023-04-27T07:38:31.231Z,16.16
2023-04-27T07:41:05.937Z,16.03
2023-04-27T07:43:32.738Z,15.79
2023-04-27T07:45:59.482Z,15.57
2023-04-27T07:48:28.669Z,15.26
2023-04-27T07:50:55.804Z,14.97
2023-04-27T07:53:22.626Z,14.73
2023-04-27T07:55:49.338Z,14.46
2023-04-27T07:58:16.167Z,14.30
2023-04-27T08:00:43.429Z,14.29
2023-04-27T08:03:10.408Z,14.33
2023-04-27T08:05:37.611Z,14.31
2023-04-27T08:08:04.767Z,14.44
2023-04-27T08:10:31.542Z,14.66
2023-04-27T08:12:58.222Z,14.87
2023-04-27T08:15:24.963Z,15.22
2023-04-27T08:17:51.646Z,16.06
2023-04-27T08:20:18.425Z,18.84
2023-04-27T08:22:45.083Z,22.90
2023-04-27T08:25:11.853Z,26.23
2023-04-27T08:27:40.161Z,29.16
2023-04-27T08:30:07.902Z,30.30
2023-04-27T08:32:34.791Z,30.60
2023-04-27T08:35:01.605Z,31.97
2023-04-27T08:37:28.402Z,33.14
2023-04-27T08:39:54.964Z,34.43
2023-04-27T08:42:21.750Z,35.02
2023-04-27T08:44:48.508Z,36.04
2023-04-27T08:47:15.441Z,37.20
2023-04-27T08:49:42.944Z,37.67
2023-04-27T08:52:15.248Z,38.41
2023-04-27T08:54:41.918Z,38.47
2023-04-27T08:57:11.844Z,39.28
2023-04-27T08:59:41.977Z,39.18
2023-04-27T09:02:20.066Z,39.51
2023-04-27T09:04:47.138Z,40.12
2023-04-27T09:07:16.570Z,40.31
2023-04-27T09:09:44.415Z,40.05
2023-04-27T09:12:18.867Z,39.95
2023-04-27T09:15:06.502Z,40.36
2023-04-27T09:17:33.978Z,40.86
2023-04-27T09:20:09.067Z,41.32
2023-04-27T09:22:51.718Z,41.92
2023-04-27T09:25:28.766Z,42.87
2023-04-27T09:27:56.613Z,44.32
2023-04-27T09:30:23.898Z,44.99
2023-04-27T09:33:04.066Z,44.97
2023-04-27T09:35:33.951Z,44.32
2023-04-27T09:38:02.065Z,44.42
2023-04-27T09:40:31.246Z,44.82
2023-04-27T09:43:03.953Z,45.35
2023-04-27T09:45:32.899Z,46.25
2023-04-27T09:48:01.261Z,46.82
2023-04-27T09:50:28.091Z,47.12
2023-04-27T09:52:55.037Z,47.04
2023-04-27T09:55:28.533Z,46.72
2023-04-27T09:58:29.678Z,46.88
2023-04-27T10:01:09.144Z,47.16
2023-04-27T10:03:54.743Z,47.02
2023-04-27T10:06:51.934Z,47.67
2023-04-27T10:09:25.074Z,48.38
2023-04-27T10:11:53.822Z,48.84
2023-04-27T10:14:24.604Z,48.43
2023-04-27T10:16:54.238Z,47.66
2023-04-27T10:19:22.293Z,46.84
2023-04-27T10:22:03.880Z,46.41
2023-04-27T10:24:38.650Z,45.67
2023-04-27T10:27:16.167Z,45.27
2023-04-27T10:29:44.654Z,44.61
2023-04-27T10:32:19.652Z,43.53
2023-04-27T10:34:48.263Z,43.78
2023-04-27T10:37:15.918Z,43.85
2023-04-27T10:39:47.821Z,44.74
2023-04-27T10:42:28.380Z,45.02
2023-04-27T10:44:59.149Z,45.48
2023-04-27T10:47:37.361Z,47.10
2023-04-27T10:50:11.475Z,47.14
2023-04-27T10:52:44.568Z,47.88
2023-04-27T10:55:22.575Z,48.47
2023-04-27T10:57:54.664Z,48.23
2023-04-27T11:00:41.512Z,48.27
2023-04-27T11:03:12.985Z,47.65
2023-04-27T11:05:41.246Z,46.52
2023-04-27T11:08:10.891Z,46.60
2023-04-27T11:11:01.762Z,47.22
2023-04-27T11:13:28.949Z,47.22
2023-04-27T11:15:57.877Z,47.37
2023-04-27T11:18:29.062Z,47.69
2023-04-27T11:21:08.431Z,47.58
2023-04-27T11:23:39.721Z,47.77
2023-04-27T11:26:21.508Z,47.72
2023-04-27T11:29:00.387Z,47.00
2023-04-27T11:31:39.627Z,46.74
2023-04-27T11:34:19.578Z,46.83
2023-04-27T11:37:14.372Z,46.94
2023-04-27T11:39:46.656Z,47.14
2023-04-27T11:42:19.755Z,46.55
2023-04-27T11:44:58.404Z,45.78
2023-04-27T11:47:26.037Z,45.56
2023-04-27T11:49:54.748Z,44.42
2023-04-27T11:52:22.662Z,42.96
2023-04-27T11:54:56.471Z,41.75
2023-04-27T11:57:27.651Z,40.66
2023-04-27T11:59:55.793Z,40.03
2023-04-27T12:02:23.364Z,39.75
2023-04-27T12:04:52.317Z,39.22
2023-04-27T12:07:19.694Z,39.58
2023-04-27T12:09:46.882Z,39.58
2023-04-27T12:12:22.978Z,39.97
2023-04-27T12:14:50.280Z,40.26
2023-04-27T12:17:17.800Z,39.33
2023-04-27T12:19:44.509Z,36.66
2023-04-27T12:22:11.385Z,34.47
2023-04-27T12:24:38.170Z,32.94
2023-04-27T12:27:05.228Z,31.72
2023-04-27T12:29:32.194Z,30.97
2023-04-27T12:31:59.741Z,30.51
2023-04-27T12:34:27.366Z,30.14
2023-04-27T12:36:54.366Z,29.46
2023-04-27T12:39:24.870Z,28.56
2023-04-27T12:41:51.920Z,28.09
2023-04-27T12:44:19.592Z,27.80
2023-04-27T12:46:48.540Z,27.13
2023-04-27T12:49:15.888Z,26.87
2023-04-27T12:51:42.943Z,26.83
2023-04-27T12:54:11.219Z,26.92
2023-04-27T12:56:38.385Z,26.99
2023-04-27T12:59:06.302Z,26.99
2023-04-27T13:01:33.658Z,26.81
2023-04-27T13:04:04.834Z,26.26
2023-04-27T13:06:32.149Z,26.26
2023-04-27T13:08:59.595Z,26.07
2023-04-27T13:11:27.069Z,25.99
2023-04-27T13:13:55.225Z,26.18
2023-04-27T13:16:25.343Z,26.37
2023-04-27T13:18:53.864Z,25.97
2023-04-27T13:21:21.097Z,25.91
2023-04-27T13:23:48.173Z,26.07
2023-04-27T13:26:15.984Z,26.09
2023-04-27T13:28:43.086Z,26.08
2023-04-27T13:31:10.303Z,25.94
2023-04-27T13:33:41.959Z,25.61
2023-04-27T13:36:12.544Z,25.48
2023-04-27T13:38:40.443Z,25.26
2023-04-27T13:41:08.405Z,25.20
2023-04-27T13:43:35.216Z,25.17
2023-04-27T13:46:02.555Z,25.14
2023-04-27T13:48:30.386Z,25.03
2023-04-27T13:50:57.843Z,24.78
2023-04-27T13:53:26.445Z,24.62
2023-04-27T13:55:58.076Z,24.48
2023-04-27T13:58:27.174Z,24.45
2023-04-27T14:00:54.641Z,24.41
2023-04-27T14:03:21.636Z,24.45
2023-04-27T14:05:50.405Z,24.46
2023-04-27T14:08:17.707Z,24.41
2023-04-27T14:10:48.537Z,24.62
2023-04-27T14:13:15.309Z,24.80
2023-04-27T14:15:43.211Z,24.98
2023-04-27T14:18:10.150Z,25.16
2023-04-27T14:20:38.399Z,24.99
2023-04-27T14:23:06.968Z,24.87
2023-04-27T14:25:34.716Z,24.81
2023-04-27T14:28:03.275Z,24.75
2023-04-27T14:30:31.611Z,24.61
2023-04-27T14:32:58.680Z,24.57
2023-04-27T14:35:25.872Z,24.19
2023-04-27T14:37:52.685Z,24.03
2023-04-27T14:40:20.012Z,23.99
2023-04-27T14:42:47.193Z,24.12
2023-04-27T14:45:15.858Z,24.14
2023-04-27T14:47:42.632Z,23.96
2023-04-27T14:50:09.675Z,23.89
2023-04-27T14:52:36.398Z,23.88
2023-04-27T14:55:03.153Z,23.61
2023-04-27T14:57:29.835Z,23.29
2023-04-27T14:59:57.157Z,23.15
2023-04-27T15:02:23.981Z,22.95
2023-04-27T15:04:50.805Z,22.90
2023-04-27T15:07:17.557Z,22.77
2023-04-27T15:09:44.401Z,22.69
2023-04-27T15:12:11.309Z,22.68
2023-04-27T15:14:38.130Z,22.87
2023-04-27T15:17:04.788Z,23.09
2023-04-27T15:19:31.751Z,23.30
2023-04-27T15:21:58.593Z,23.43
2023-04-27T15:24:25.292Z,23.48
2023-04-27T15:26:52.170Z,23.38
2023-04-27T15:29:18.869Z,23.21
2023-04-27T15:31:47.308Z,23.08
2023-04-27T15:34:14.387Z,22.87
2023-04-27T15:36:41.254Z,22.75
2023-04-27T15:39:09.964Z,22.69
2023-04-27T15:41:37.211Z,22.48
2023-04-27T15:44:05.116Z,22.35
2023-04-27T15:46:31.945Z,22.42
2023-04-27T15:48:58.759Z,22.54
2023-04-27T15:51:25.502Z,22.56
2023-04-27T15:53:52.343Z,22.54
2023-04-27T15:56:19.151Z,22.56
2023-04-27T15:58:46.276Z,22.48
2023-04-27T16:01:13.052Z,22.44
2023-04-27T16:03:40.348Z,22.26
2023-04-27T16:06:08.582Z,22.16
2023-04-27T16:08:35.372Z,22.14
2023-04-27T16:11:02.400Z,22.12
2023-04-27T16:13:29.392Z,22.07
2023-04-27T16:15:56.339Z,22.00
2023-04-27T16:18:23.311Z,21.86
2023-04-27T16:20:50.033Z,21.75
2023-04-27T16:23:17.161Z,21.69
2023-04-27T16:28:10.586Z,21.66
2023-04-27T16:30:38.338Z,21.58
2023-04-27T16:33:05.159Z,21.58
2023-04-27T16:35:33.640Z,21.47
2023-04-27T16:38:02.961Z,21.36
2023-04-27T16:40:29.781Z,21.31
2023-04-27T16:42:56.459Z,21.23
2023-04-27T16:45:23.156Z,21.18
2023-04-27T16:47:49.865Z,21.07
2023-04-27T16:50:17.280Z,20.96
2023-04-27T16:52:43.966Z,20.79
2023-04-27T16:55:10.623Z,20.67
2023-04-27T16:57:37.384Z,20.55
2023-04-27T17:00:09.857Z,20.45
2023-04-27T17:02:36.780Z,20.35
2023-04-27T17:05:04.087Z,20.28
2023-04-27T17:07:32.819Z,20.25
2023-04-27T17:09:59.925Z,20.20
2023-04-27T17:12:26.778Z,20.18
2023-04-27T17:14:53.667Z,20.15
2023-04-27T17:17:20.522Z,20.07
2023-04-27T17:19:47.730Z,19.99
2023-04-27T17:22:15.123Z,19.87
2023-04-27T17:24:41.934Z,19.78
2023-04-27T17:27:12.004Z,19.64
2023-04-27T17:29:44.311Z,19.61
2023-04-27T17:32:11.145Z,19.59
2023-04-27T17:34:38.755Z,19.53
2023-04-27T17:37:07.101Z,19.51
2023-04-27T17:39:34.521Z,19.51
2023-04-27T17:42:01.517Z,19.52
2023-04-27T17:44:28.522Z,19.50
2023-04-27T17:46:55.342Z,19.47
2023-04-27T17:49:22.194Z,19.40
2023-04-27T17:51:49.224Z,19.36
2023-04-27T17:54:15.940Z,19.37
2023-04-27T17:56:42.896Z,19.38
2023-04-27T17:59:09.783Z,19.35
2023-04-27T18:01:36.780Z,19.27
2023-04-27T18:04:05.711Z,19.17
2023-04-27T18:06:33.321Z,19.05
2023-04-27T18:09:00.055Z,18.97
2023-04-27T18:11:26.790Z,18.88
2023-04-27T18:13:58.194Z,18.80
2023-04-27T18:16:25.636Z,18.73
2023-04-27T18:18:52.566Z,18.66
2023-04-27T18:21:19.377Z,18.62
2023-04-27T18:23:46.247Z,18.57
2023-04-27T18:26:13.314Z,18.52
2023-04-27T18:28:41.741Z,18.45
2023-04-27T18:31:19.007Z,18.43
2023-04-27T18:33:46.722Z,18.38
2023-04-27T18:36:13.563Z,18.36
2023-04-27T18:38:40.559Z,18.35
2023-04-27T18:41:07.715Z,18.32
2023-04-27T18:43:38.285Z,18.30
2023-04-27T18:46:05.176Z,18.30
2023-04-27T18:48:32.486Z,18.28
2023-04-27T18:50:59.484Z,18.26
2023-04-27T18:53:28.118Z,18.27
2023-04-27T18:55:55.146Z,18.26
2023-04-27T18:58:23.726Z,18.25
2023-04-27T19:00:51.526Z,18.22
2023-04-27T19:03:18.283Z,18.19
2023-04-27T19:05:45.574Z,18.18
2023-04-27T19:08:12.332Z,18.16
2023-04-27T19:10:41.607Z,18.15
2023-04-27T19:13:08.635Z,18.15
2023-04-27T19:15:35.389Z,18.13
2023-04-27T19:18:09.963Z,18.11
2023-04-27T19:20:38.602Z,18.04
2023-04-27T19:23:05.547Z,18.03
2023-04-27T19:25:32.274Z,18.02
2023-04-27T19:27:59.078Z,18.02
2023-04-27T19:30:25.892Z,18.02
2023-04-27T19:32:54.188Z,18.01
2023-04-27T19:35:23.695Z,17.99
2023-04-27T19:37:50.900Z,17.96
2023-04-27T19:40:18.274Z,17.93
2023-04-27T19:42:45.243Z,17.93
2023-04-27T19:45:12.191Z,17.93
2023-04-27T19:47:39.251Z,17.92
2023-04-27T19:50:06.675Z,17.89
2023-04-27T19:52:33.558Z,17.88
2023-04-27T19:55:00.388Z,17.85
2023-04-27T19:57:27.171Z,17.82
2023-04-27T19:59:53.871Z,17.79
2023-04-27T20:02:21.600Z,17.75
2023-04-27T20:04:48.882Z,17.71
2023-04-27T20:07:15.800Z,17.65
2023-04-27T20:09:42.621Z,17.57
2023-04-27T20:12:19.385Z,17.50
2023-04-27T20:14:56.218Z,17.47
2023-04-27T20:17:25.855Z,17.44
2023-04-27T20:19:56.556Z,17.36
2023-04-27T20:22:23.901Z,17.27
2023-04-27T20:24:51.063Z,17.25
2023-04-27T20:27:17.976Z,17.20
2023-04-27T20:29:47.343Z,17.15
2023-04-27T20:32:14.074Z,17.07
2023-04-27T20:34:40.969Z,17.02
2023-04-27T20:37:09.561Z,16.96
2023-04-27T20:39:36.733Z,16.89
2023-04-27T20:42:03.830Z,16.83
2023-04-27T20:44:32.682Z,16.86
2023-04-27T20:46:59.633Z,16.88
2023-04-27T20:49:34.249Z,16.89
2023-04-27T20:52:03.602Z,16.88
2023-04-27T20:54:33.256Z,16.87
2023-04-27T20:57:03.855Z,16.85
2023-04-27T20:59:30.753Z,16.81
2023-04-27T21:01:57.606Z,16.81
2023-04-27T21:04:24.439Z,16.81
2023-04-27T21:06:51.429Z,16.82
2023-04-27T21:09:18.065Z,16.80
2023-04-27T21:11:45.525Z,16.79
2023-04-27T21:14:12.519Z,16.81
2023-04-27T21:16:39.562Z,16.83
2023-04-27T21:19:08.688Z,16.79
2023-04-27T21:21:36.205Z,16.75
2023-04-27T21:24:08.418Z,16.72
2023-04-27T21:26:38.294Z,16.71
2023-04-27T21:29:06.049Z,16.69
2023-04-27T21:31:33.791Z,16.67
2023-04-27T21:34:04.641Z,16.71
2023-04-27T21:36:32.915Z,16.77
2023-04-27T21:38:59.857Z,16.80
2023-04-27T21:41:26.783Z,16.83
2023-04-27T21:43:53.436Z,16.90
2023-04-27T21:46:20.144Z,16.94
2023-04-27T21:48:46.793Z,16.96
2023-04-27T21:51:13.705Z,16.97
2023-04-27T21:53:40.480Z,16.96
2023-04-27T21:56:07.495Z,16.93
2023-04-27T21:58:34.181Z,16.95
2023-04-27T22:01:01.151Z,16.97
2023-04-27T22:03:28.726Z,16.96
2023-04-27T22:05:57.509Z,16.93
2023-04-27T22:08:24.244Z,16.90
2023-04-27T22:10:50.930Z,16.87
2023-04-27T22:13:19.181Z,16.86
2023-04-27T22:15:47.587Z,16.88
2023-04-27T22:18:15.452Z,16.90
2023-04-27T22:20:42.620Z,16.89
2023-04-27T22:23:09.647Z,16.90
2023-04-27T22:25:36.745Z,16.93
2023-04-27T22:28:03.547Z,16.96
2023-04-27T22:30:31.104Z,16.98
2023-04-27T22:32:58.081Z,16.98
2023-04-27T22:35:27.488Z,16.97
2023-04-27T22:38:01.740Z,16.98
2023-04-27T22:40:30.519Z,16.96
2023-04-27T22:42:57.148Z,16.92
2023-04-27T22:45:24.165Z,16.84
2023-04-27T22:47:51.069Z,16.81
2023-04-27T22:50:18.136Z,16.81
2023-04-27T22:52:44.986Z,16.82
2023-04-27T22:55:12.447Z,16.84
2023-04-27T22:57:41.285Z,16.86
2023-04-27T23:00:12.163Z,16.82
2023-04-27T23:02:40.015Z,16.82
2023-04-27T23:05:07.332Z,16.81
2023-04-27T23:07:34.842Z,16.83
2023-04-27T23:10:03.037Z,16.88
2023-04-27T23:12:30.857Z,16.93
2023-04-27T23:14:58.173Z,16.97
2023-04-27T23:17:30.706Z,16.97
2023-04-27T23:19:59.145Z,16.98
2023-04-27T23:22:26.631Z,16.99
2023-04-27T23:24:53.939Z,17.00
2023-04-27T23:27:21.469Z,16.99
2023-04-27T23:29:48.229Z,16.99
2023-04-27T23:32:15.194Z,16.98
2023-04-27T23:34:42.949Z,16.97
2023-04-27T23:37:09.589Z,16.96
2023-04-27T23:39:36.251Z,16.93
2023-04-27T23:42:03.356Z,16.92
2023-04-27T23:44:30.154Z,16.90
2023-04-27T23:46:56.883Z,16.86
2023-04-27T23:49:23.620Z,16.79
2023-04-27T23:51:52.339Z,16.79
2023-04-27T23:54:18.988Z,16.77
2023-04-27T23:56:45.638Z,16.77
2023-04-27T23:59:12.375Z,16.74
